sensor_id;sensor_type;location;lat;lon;timestamp;P1;durP1;ratioP1;P2;durP2;ratioP2
46284;SDS011;32018;59.182;18.148;2024-02-21T00:02:05;1.67;;;1.58;;
46284;SDS011;32018;59.182;18.148;2024-02-21T00:04:31;2.72;;;2.53;;
46284;SDS011;32018;59.182;18.148;2024-02-21T00:06:56;2.17;;;2.08;;
46284;SDS011;32018;59.182;18.148;2024-02-21T00:09:21;1.90;;;1.80;;
46284;SDS011;32018;59.182;18.148;2024-02-21T00:11:47;2.25;;;2.05;;
46284;SDS011;32018;59.182;18.148;2024-02-21T00:14:12;1.70;;;1.60;;
46284;SDS011;32018;59.182;18.148;2024-02-21T00:16:37;2.00;;;1.90;;
46284;SDS011;32018;59.182;18.148;2024-02-21T00:19:03;1.88;;;1.77;;
46284;SDS011;32018;59.182;18.148;2024-02-21T00:21:29;1.80;;;1.70;;
46284;SDS011;32018;59.182;18.148;2024-02-21T00:23:54;2.47;;;2.15;;
46284;SDS011;32018;59.182;18.148;2024-02-21T00:26:19;2.00;;;1.90;;
46284;SDS011;32018;59.182;18.148;2024-02-21T00:28:45;1.98;;;1.88;;
46284;SDS011;32018;59.182;18.148;2024-02-21T00:31:10;1.80;;;1.70;;
46284;SDS011;32018;59.182;18.148;2024-02-21T00:33:35;1.60;;;1.52;;
46284;SDS011;32018;59.182;18.148;2024-02-21T00:36:00;1.95;;;1.85;;
46284;SDS011;32018;59.182;18.148;2024-02-21T00:38:26;1.63;;;1.52;;
46284;SDS011;32018;59.182;18.148;2024-02-21T00:40:51;2.10;;;1.90;;
46284;SDS011;32018;59.182;18.148;2024-02-21T00:43:16;1.60;;;1.50;;
46284;SDS011;32018;59.182;18.148;2024-02-21T00:45:41;1.80;;;1.70;;
46284;SDS011;32018;59.182;18.148;2024-02-21T00:48:07;1.80;;;1.70;;
46284;SDS011;32018;59.182;18.148;2024-02-21T00:50:32;1.80;;;1.70;;
46284;SDS011;32018;59.182;18.148;2024-02-21T00:52:57;2.00;;;1.90;;
46284;SDS011;32018;59.182;18.148;2024-02-21T00:55:22;1.85;;;1.75;;
46284;SDS011;32018;59.182;18.148;2024-02-21T00:57:48;1.75;;;1.65;;
46284;SDS011;32018;59.182;18.148;2024-02-21T01:00:13;2.30;;;2.20;;
46284;SDS011;32018;59.182;18.148;2024-02-21T01:02:38;2.00;;;1.90;;
46284;SDS011;32018;59.182;18.148;2024-02-21T01:05:04;2.42;;;2.30;;
46284;SDS011;32018;59.182;18.148;2024-02-21T01:07:29;2.03;;;1.92;;
46284;SDS011;32018;59.182;18.148;2024-02-21T01:09:54;1.60;;;1.50;;
46284;SDS011;32018;59.182;18.148;2024-02-21T01:12:20;2.10;;;2.00;;
46284;SDS011;32018;59.182;18.148;2024-02-21T01:14:45;3.28;;;2.97;;
46284;SDS011;32018;59.182;18.148;2024-02-21T01:17:14;2.50;;;2.40;;
46284;SDS011;32018;59.182;18.148;2024-02-21T01:19:39;3.13;;;2.92;;
46284;SDS011;32018;59.182;18.148;2024-02-21T01:22:05;1.80;;;1.70;;
46284;SDS011;32018;59.182;18.148;2024-02-21T01:24:30;3.95;;;3.55;;
46284;SDS011;32018;59.182;18.148;2024-02-21T01:26:55;2.65;;;2.45;;
46284;SDS011;32018;59.182;18.148;2024-02-21T01:29:20;3.92;;;3.45;;
46284;SDS011;32018;59.182;18.148;2024-02-21T01:31:45;3.15;;;2.95;;
46284;SDS011;32018;59.182;18.148;2024-02-21T01:34:12;5.43;;;4.20;;
46284;SDS011;32018;59.182;18.148;2024-02-21T01:36:37;4.25;;;3.85;;
46284;SDS011;32018;59.182;18.148;2024-02-21T01:39:02;3.83;;;3.15;;
46284;SDS011;32018;59.182;18.148;2024-02-21T01:41:29;2.72;;;2.53;;
46284;SDS011;32018;59.182;18.148;2024-02-21T01:43:54;4.30;;;4.00;;
46284;SDS011;32018;59.182;18.148;2024-02-21T01:46:20;3.53;;;3.33;;
46284;SDS011;32018;59.182;18.148;2024-02-21T01:48:45;7.25;;;3.72;;
46284;SDS011;32018;59.182;18.148;2024-02-21T01:51:11;3.00;;;2.80;;
46284;SDS011;32018;59.182;18.148;2024-02-21T01:53:37;9.90;;;4.90;;
46284;SDS011;32018;59.182;18.148;2024-02-21T01:56:03;5.40;;;4.88;;
46284;SDS011;32018;59.182;18.148;2024-02-21T01:58:30;3.53;;;3.33;;
46284;SDS011;32018;59.182;18.148;2024-02-21T02:00:56;6.10;;;5.53;;
46284;SDS011;32018;59.182;18.148;2024-02-21T02:03:21;2.97;;;2.78;;
46284;SDS011;32018;59.182;18.148;2024-02-21T02:05:47;3.53;;;3.33;;
46284;SDS011;32018;59.182;18.148;2024-02-21T02:08:14;5.07;;;4.57;;
46284;SDS011;32018;59.182;18.148;2024-02-21T02:10:39;9.35;;;5.18;;
46284;SDS011;32018;59.182;18.148;2024-02-21T02:13:05;4.45;;;4.15;;
46284;SDS011;32018;59.182;18.148;2024-02-21T02:15:47;5.05;;;4.63;;
46284;SDS011;32018;59.182;18.148;2024-02-21T02:18:13;3.92;;;3.70;;
46284;SDS011;32018;59.182;18.148;2024-02-21T02:20:38;3.58;;;3.30;;
46284;SDS011;32018;59.182;18.148;2024-02-21T02:23:07;4.53;;;4.22;;
46284;SDS011;32018;59.182;18.148;2024-02-21T02:25:33;3.80;;;3.60;;
46284;SDS011;32018;59.182;18.148;2024-02-21T02:27:58;4.32;;;3.75;;
46284;SDS011;32018;59.182;18.148;2024-02-21T02:30:23;3.30;;;3.10;;
46284;SDS011;32018;59.182;18.148;2024-02-21T02:32:49;2.67;;;2.47;;
46284;SDS011;32018;59.182;18.148;2024-02-21T02:35:14;3.22;;;2.92;;
46284;SDS011;32018;59.182;18.148;2024-02-21T02:37:39;3.63;;;3.00;;
46284;SDS011;32018;59.182;18.148;2024-02-21T02:40:07;3.15;;;2.80;;
46284;SDS011;32018;59.182;18.148;2024-02-21T02:42:33;3.10;;;2.90;;
46284;SDS011;32018;59.182;18.148;2024-02-21T02:44:58;2.97;;;2.63;;
46284;SDS011;32018;59.182;18.148;2024-02-21T02:47:23;3.15;;;2.90;;
46284;SDS011;32018;59.182;18.148;2024-02-21T02:49:49;2.60;;;2.40;;
46284;SDS011;32018;59.182;18.148;2024-02-21T02:52:16;2.65;;;2.45;;
46284;SDS011;32018;59.182;18.148;2024-02-21T02:54:41;2.72;;;2.58;;
46284;SDS011;32018;59.182;18.148;2024-02-21T02:57:06;2.00;;;1.90;;
46284;SDS011;32018;59.182;18.148;2024-02-21T02:59:32;2.75;;;2.55;;
46284;SDS011;32018;59.182;18.148;2024-02-21T03:01:57;2.78;;;2.58;;
46284;SDS011;32018;59.182;18.148;2024-02-21T03:04:23;3.85;;;2.30;;
46284;SDS011;32018;59.182;18.148;2024-02-21T03:06:48;4.30;;;2.97;;
46284;SDS011;32018;59.182;18.148;2024-02-21T03:09:13;3.10;;;2.35;;
46284;SDS011;32018;59.182;18.148;2024-02-21T03:11:40;5.00;;;2.25;;
46284;SDS011;32018;59.182;18.148;2024-02-21T03:14:08;2.95;;;2.75;;
46284;SDS011;32018;59.182;18.148;2024-02-21T03:16:33;2.60;;;2.40;;
46284;SDS011;32018;59.182;18.148;2024-02-21T03:18:58;2.70;;;2.50;;
46284;SDS011;32018;59.182;18.148;2024-02-21T03:21:23;3.03;;;2.20;;
46284;SDS011;32018;59.182;18.148;2024-02-21T03:23:48;2.75;;;2.55;;
46284;SDS011;32018;59.182;18.148;2024-02-21T03:26:14;2.50;;;2.40;;
46284;SDS011;32018;59.182;18.148;2024-02-21T03:28:42;2.22;;;2.05;;
46284;SDS011;32018;59.182;18.148;2024-02-21T03:31:10;1.80;;;1.70;;
46284;SDS011;32018;59.182;18.148;2024-02-21T03:33:35;2.00;;;1.90;;
46284;SDS011;32018;59.182;18.148;2024-02-21T03:36:01;2.42;;;2.33;;
46284;SDS011;32018;59.182;18.148;2024-02-21T03:38:26;2.10;;;1.98;;
46284;SDS011;32018;59.182;18.148;2024-02-21T03:40:51;2.47;;;2.30;;
46284;SDS011;32018;59.182;18.148;2024-02-21T03:43:16;2.33;;;2.13;;
46284;SDS011;32018;59.182;18.148;2024-02-21T03:45:42;2.38;;;2.28;;
46284;SDS011;32018;59.182;18.148;2024-02-21T03:48:07;2.80;;;2.60;;
46284;SDS011;32018;59.182;18.148;2024-02-21T03:50:32;2.85;;;2.65;;
46284;SDS011;32018;59.182;18.148;2024-02-21T03:52:57;2.63;;;2.50;;
46284;SDS011;32018;59.182;18.148;2024-02-21T03:55:23;2.40;;;2.30;;
46284;SDS011;32018;59.182;18.148;2024-02-21T03:57:48;2.85;;;2.50;;
46284;SDS011;32018;59.182;18.148;2024-02-21T04:00:14;2.33;;;2.13;;
46284;SDS011;32018;59.182;18.148;2024-02-21T04:02:39;2.47;;;2.28;;
46284;SDS011;32018;59.182;18.148;2024-02-21T04:05:04;2.08;;;1.98;;
46284;SDS011;32018;59.182;18.148;2024-02-21T04:07:30;1.80;;;1.70;;
46284;SDS011;32018;59.182;18.148;2024-02-21T04:09:55;1.90;;;1.80;;
46284;SDS011;32018;59.182;18.148;2024-02-21T04:12:21;1.80;;;1.70;;
46284;SDS011;32018;59.182;18.148;2024-02-21T04:14:46;1.95;;;1.85;;
46284;SDS011;32018;59.182;18.148;2024-02-21T04:17:11;2.08;;;1.98;;
46284;SDS011;32018;59.182;18.148;2024-02-21T04:19:36;1.95;;;1.83;;
46284;SDS011;32018;59.182;18.148;2024-02-21T04:22:01;6.78;;;2.00;;
46284;SDS011;32018;59.182;18.148;2024-02-21T04:24:27;1.80;;;1.70;;
46284;SDS011;32018;59.182;18.148;2024-02-21T04:26:52;1.92;;;1.70;;
46284;SDS011;32018;59.182;18.148;2024-02-21T04:29:17;2.92;;;1.73;;
46284;SDS011;32018;59.182;18.148;2024-02-21T04:31:42;2.10;;;2.00;;
46284;SDS011;32018;59.182;18.148;2024-02-21T04:34:08;1.95;;;1.85;;
46284;SDS011;32018;59.182;18.148;2024-02-21T04:36:33;2.60;;;2.40;;
46284;SDS011;32018;59.182;18.148;2024-02-21T04:38:58;4.90;;;2.20;;
46284;SDS011;32018;59.182;18.148;2024-02-21T04:41:24;3.90;;;2.15;;
46284;SDS011;32018;59.182;18.148;2024-02-21T04:43:49;2.17;;;1.98;;
46284;SDS011;32018;59.182;18.148;2024-02-21T04:46:14;2.80;;;1.67;;
46284;SDS011;32018;59.182;18.148;2024-02-21T04:48:40;2.15;;;2.05;;
46284;SDS011;32018;59.182;18.148;2024-02-21T04:51:05;2.15;;;2.03;;
46284;SDS011;32018;59.182;18.148;2024-02-21T04:53:31;2.90;;;2.00;;
46284;SDS011;32018;59.182;18.148;2024-02-21T04:55:56;2.75;;;1.70;;
46284;SDS011;32018;59.182;18.148;2024-02-21T04:58:21;1.95;;;1.85;;
46284;SDS011;32018;59.182;18.148;2024-02-21T05:00:46;5.18;;;1.90;;
46284;SDS011;32018;59.182;18.148;2024-02-21T05:03:12;2.30;;;2.10;;
46284;SDS011;32018;59.182;18.148;2024-02-21T05:05:37;2.08;;;1.85;;
46284;SDS011;32018;59.182;18.148;2024-02-21T05:08:02;2.20;;;1.50;;
46284;SDS011;32018;59.182;18.148;2024-02-21T05:10:27;2.38;;;2.17;;
46284;SDS011;32018;59.182;18.148;2024-02-21T05:12:53;2.25;;;2.05;;
46284;SDS011;32018;59.182;18.148;2024-02-21T05:15:19;2.30;;;2.10;;
46284;SDS011;32018;59.182;18.148;2024-02-21T05:17:44;2.00;;;1.77;;
46284;SDS011;32018;59.182;18.148;2024-02-21T05:20:09;3.05;;;1.83;;
46284;SDS011;32018;59.182;18.148;2024-02-21T05:22:34;2.05;;;1.95;;
46284;SDS011;32018;59.182;18.148;2024-02-21T05:25:00;2.00;;;1.90;;
46284;SDS011;32018;59.182;18.148;2024-02-21T05:27:25;2.95;;;1.77;;
46284;SDS011;32018;59.182;18.148;2024-02-21T05:29:50;5.10;;;2.60;;
46284;SDS011;32018;59.182;18.148;2024-02-21T05:32:15;2.25;;;2.05;;
46284;SDS011;32018;59.182;18.148;2024-02-21T05:34:41;2.22;;;1.85;;
46284;SDS011;32018;59.182;18.148;2024-02-21T05:37:06;2.13;;;1.70;;
46284;SDS011;32018;59.182;18.148;2024-02-21T05:39:31;2.40;;;2.20;;
46284;SDS011;32018;59.182;18.148;2024-02-21T05:41:57;2.15;;;1.98;;
46284;SDS011;32018;59.182;18.148;2024-02-21T05:44:22;2.28;;;2.08;;
46284;SDS011;32018;59.182;18.148;2024-02-21T05:46:47;2.45;;;2.03;;
46284;SDS011;32018;59.182;18.148;2024-02-21T05:49:12;1.95;;;1.85;;
46284;SDS011;32018;59.182;18.148;2024-02-21T05:51:38;2.03;;;1.90;;
46284;SDS011;32018;59.182;18.148;2024-02-21T05:54:03;2.70;;;2.50;;
46284;SDS011;32018;59.182;18.148;2024-02-21T05:56:28;4.10;;;2.50;;
46284;SDS011;32018;59.182;18.148;2024-02-21T05:58:53;2.58;;;1.95;;
46284;SDS011;32018;59.182;18.148;2024-02-21T06:01:18;2.88;;;2.50;;
46284;SDS011;32018;59.182;18.148;2024-02-21T06:03:44;1.77;;;1.67;;
46284;SDS011;32018;59.182;18.148;2024-02-21T06:06:10;8.07;;;1.85;;
46284;SDS011;32018;59.182;18.148;2024-02-21T06:08:35;4.63;;;2.17;;
46284;SDS011;32018;59.182;18.148;2024-02-21T06:11:00;3.95;;;2.40;;
46284;SDS011;32018;59.182;18.148;2024-02-21T06:13:26;11.27;;;2.33;;
46284;SDS011;32018;59.182;18.148;2024-02-21T06:15:51;3.25;;;2.10;;
46284;SDS011;32018;59.182;18.148;2024-02-21T06:18:17;6.07;;;2.20;;
46284;SDS011;32018;59.182;18.148;2024-02-21T06:20:42;8.63;;;2.00;;
46284;SDS011;32018;59.182;18.148;2024-02-21T06:23:08;17.50;;;2.22;;
46284;SDS011;32018;59.182;18.148;2024-02-21T06:25:35;7.85;;;2.58;;
46284;SDS011;32018;59.182;18.148;2024-02-21T06:28:00;31.23;;;2.60;;
46284;SDS011;32018;59.182;18.148;2024-02-21T06:30:25;3.67;;;2.75;;
46284;SDS011;32018;59.182;18.148;2024-02-21T06:32:51;6.95;;;2.10;;
46284;SDS011;32018;59.182;18.148;2024-02-21T06:35:16;14.90;;;2.50;;
46284;SDS011;32018;59.182;18.148;2024-02-21T06:37:42;14.02;;;2.83;;
46284;SDS011;32018;59.182;18.148;2024-02-21T06:40:07;35.38;;;2.78;;
46284;SDS011;32018;59.182;18.148;2024-02-21T06:42:32;10.75;;;2.63;;
46284;SDS011;32018;59.182;18.148;2024-02-21T06:44:58;13.60;;;2.58;;
46284;SDS011;32018;59.182;18.148;2024-02-21T06:47:23;19.70;;;2.63;;
46284;SDS011;32018;59.182;18.148;2024-02-21T06:49:49;5.50;;;2.38;;
46284;SDS011;32018;59.182;18.148;2024-02-21T06:52:14;6.70;;;3.15;;
46284;SDS011;32018;59.182;18.148;2024-02-21T06:54:42;21.42;;;3.55;;
46284;SDS011;32018;59.182;18.148;2024-02-21T06:57:07;21.77;;;3.05;;
46284;SDS011;32018;59.182;18.148;2024-02-21T06:59:32;13.68;;;2.45;;
46284;SDS011;32018;59.182;18.148;2024-02-21T07:01:58;33.88;;;3.80;;
46284;SDS011;32018;59.182;18.148;2024-02-21T07:04:23;5.78;;;2.75;;
46284;SDS011;32018;59.182;18.148;2024-02-21T07:06:48;2.10;;;2.00;;
46284;SDS011;32018;59.182;18.148;2024-02-21T07:09:14;12.50;;;2.70;;
46284;SDS011;32018;59.182;18.148;2024-02-21T07:11:39;2.30;;;2.10;;
46284;SDS011;32018;59.182;18.148;2024-02-21T07:14:04;18.05;;;3.15;;
46284;SDS011;32018;59.182;18.148;2024-02-21T07:16:29;4.63;;;2.60;;
46284;SDS011;32018;59.182;18.148;2024-02-21T07:18:57;7.05;;;2.30;;
46284;SDS011;32018;59.182;18.148;2024-02-21T07:21:23;3.88;;;2.42;;
46284;SDS011;32018;59.182;18.148;2024-02-21T07:23:48;3.05;;;2.55;;
46284;SDS011;32018;59.182;18.148;2024-02-21T07:26:13;10.50;;;2.35;;
46284;SDS011;32018;59.182;18.148;2024-02-21T07:28:38;3.85;;;2.67;;
46284;SDS011;32018;59.182;18.148;2024-02-21T07:31:04;25.67;;;2.83;;
46284;SDS011;32018;59.182;18.148;2024-02-21T07:33:29;24.50;;;2.60;;
46284;SDS011;32018;59.182;18.148;2024-02-21T07:35:55;2.85;;;2.20;;
46284;SDS011;32018;59.182;18.148;2024-02-21T07:38:21;4.13;;;2.47;;
46284;SDS011;32018;59.182;18.148;2024-02-21T07:40:47;8.52;;;2.25;;
46284;SDS011;32018;59.182;18.148;2024-02-21T07:43:12;2.83;;;1.75;;
46284;SDS011;32018;59.182;18.148;2024-02-21T07:45:46;4.78;;;2.10;;
46284;SDS011;32018;59.182;18.148;2024-02-21T07:48:11;3.50;;;1.83;;
46284;SDS011;32018;59.182;18.148;2024-02-21T07:50:37;3.40;;;2.30;;
46284;SDS011;32018;59.182;18.148;2024-02-21T07:53:02;6.45;;;2.17;;
46284;SDS011;32018;59.182;18.148;2024-02-21T07:55:27;8.68;;;2.65;;
46284;SDS011;32018;59.182;18.148;2024-02-21T07:57:52;37.08;;;2.78;;
46284;SDS011;32018;59.182;18.148;2024-02-21T08:00:18;3.85;;;2.20;;
46284;SDS011;32018;59.182;18.148;2024-02-21T08:02:47;8.77;;;2.13;;
46284;SDS011;32018;59.182;18.148;2024-02-21T08:05:12;10.63;;;1.85;;
46284;SDS011;32018;59.182;18.148;2024-02-21T08:07:38;4.82;;;2.03;;
46284;SDS011;32018;59.182;18.148;2024-02-21T08:10:03;1.75;;;1.65;;
46284;SDS011;32018;59.182;18.148;2024-02-21T08:12:29;5.32;;;2.00;;
46284;SDS011;32018;59.182;18.148;2024-02-21T08:14:54;7.30;;;2.22;;
46284;SDS011;32018;59.182;18.148;2024-02-21T08:17:19;5.35;;;2.10;;
46284;SDS011;32018;59.182;18.148;2024-02-21T08:19:44;9.15;;;1.92;;
46284;SDS011;32018;59.182;18.148;2024-02-21T08:22:09;13.32;;;2.13;;
46284;SDS011;32018;59.182;18.148;2024-02-21T08:24:35;9.07;;;2.13;;
46284;SDS011;32018;59.182;18.148;2024-02-21T08:27:00;20.15;;;1.70;;
46284;SDS011;32018;59.182;18.148;2024-02-21T08:29:25;6.15;;;1.50;;
46284;SDS011;32018;59.182;18.148;2024-02-21T08:31:50;10.18;;;1.90;;
46284;SDS011;32018;59.182;18.148;2024-02-21T08:34:16;7.68;;;1.90;;
46284;SDS011;32018;59.182;18.148;2024-02-21T08:36:41;8.77;;;1.98;;
46284;SDS011;32018;59.182;18.148;2024-02-21T08:39:06;16.63;;;2.10;;
46284;SDS011;32018;59.182;18.148;2024-02-21T08:41:32;11.63;;;1.92;;
46284;SDS011;32018;59.182;18.148;2024-02-21T08:43:57;3.08;;;1.77;;
46284;SDS011;32018;59.182;18.148;2024-02-21T08:46:23;6.20;;;2.20;;
46284;SDS011;32018;59.182;18.148;2024-02-21T08:48:49;13.88;;;1.92;;
46284;SDS011;32018;59.182;18.148;2024-02-21T08:51:14;5.72;;;1.90;;
46284;SDS011;32018;59.182;18.148;2024-02-21T08:53:40;11.95;;;2.00;;
46284;SDS011;32018;59.182;18.148;2024-02-21T08:56:05;7.32;;;3.45;;
46284;SDS011;32018;59.182;18.148;2024-02-21T08:58:31;5.53;;;2.15;;
46284;SDS011;32018;59.182;18.148;2024-02-21T09:00:56;2.50;;;2.30;;
46284;SDS011;32018;59.182;18.148;2024-02-21T09:03:22;3.53;;;2.70;;
46284;SDS011;32018;59.182;18.148;2024-02-21T09:05:47;3.42;;;2.65;;
46284;SDS011;32018;59.182;18.148;2024-02-21T09:08:12;6.22;;;2.15;;
46284;SDS011;32018;59.182;18.148;2024-02-21T09:10:39;5.45;;;2.10;;
46284;SDS011;32018;59.182;18.148;2024-02-21T09:13:04;3.83;;;2.40;;
46284;SDS011;32018;59.182;18.148;2024-02-21T09:15:29;3.60;;;3.10;;
46284;SDS011;32018;59.182;18.148;2024-02-21T09:17:54;6.75;;;2.50;;
46284;SDS011;32018;59.182;18.148;2024-02-21T09:20:20;3.47;;;2.72;;
46284;SDS011;32018;59.182;18.148;2024-02-21T09:22:45;2.65;;;2.45;;
46284;SDS011;32018;59.182;18.148;2024-02-21T09:25:10;10.43;;;5.35;;
46284;SDS011;32018;59.182;18.148;2024-02-21T09:27:37;3.35;;;3.03;;
46284;SDS011;32018;59.182;18.148;2024-02-21T09:30:02;3.40;;;2.47;;
46284;SDS011;32018;59.182;18.148;2024-02-21T09:32:29;2.45;;;2.15;;
46284;SDS011;32018;59.182;18.148;2024-02-21T09:34:54;2.25;;;2.05;;
46284;SDS011;32018;59.182;18.148;2024-02-21T09:37:20;3.95;;;2.95;;
46284;SDS011;32018;59.182;18.148;2024-02-21T09:39:45;2.42;;;2.22;;
46284;SDS011;32018;59.182;18.148;2024-02-21T09:42:12;2.30;;;1.92;;
46284;SDS011;32018;59.182;18.148;2024-02-21T09:44:39;2.65;;;2.33;;
46284;SDS011;32018;59.182;18.148;2024-02-21T09:47:12;2.25;;;1.80;;
46284;SDS011;32018;59.182;18.148;2024-02-21T09:49:40;2.40;;;1.77;;
46284;SDS011;32018;59.182;18.148;2024-02-21T09:52:06;1.90;;;1.80;;
46284;SDS011;32018;59.182;18.148;2024-02-21T09:54:35;3.30;;;2.65;;
46284;SDS011;32018;59.182;18.148;2024-02-21T09:57:00;2.13;;;1.92;;
46284;SDS011;32018;59.182;18.148;2024-02-21T09:59:27;2.40;;;2.20;;
46284;SDS011;32018;59.182;18.148;2024-02-21T10:01:52;2.92;;;1.98;;
46284;SDS011;32018;59.182;18.148;2024-02-21T10:04:18;3.78;;;2.60;;
46284;SDS011;32018;59.182;18.148;2024-02-21T10:06:44;3.15;;;2.40;;
46284;SDS011;32018;59.182;18.148;2024-02-21T10:09:19;3.17;;;2.97;;
46284;SDS011;32018;59.182;18.148;2024-02-21T10:11:47;5.65;;;5.22;;
46284;SDS011;32018;59.182;18.148;2024-02-21T10:14:12;2.63;;;2.42;;
46284;SDS011;32018;59.182;18.148;2024-02-21T10:16:39;3.70;;;3.40;;
46284;SDS011;32018;59.182;18.148;2024-02-21T10:19:04;3.38;;;3.08;;
46284;SDS011;32018;59.182;18.148;2024-02-21T10:21:29;3.05;;;2.50;;
46284;SDS011;32018;59.182;18.148;2024-02-21T10:23:55;3.28;;;2.40;;
46284;SDS011;32018;59.182;18.148;2024-02-21T10:26:20;2.45;;;2.20;;
46284;SDS011;32018;59.182;18.148;2024-02-21T10:28:46;2.28;;;2.00;;
46284;SDS011;32018;59.182;18.148;2024-02-21T10:31:21;7.60;;;7.03;;
46284;SDS011;32018;59.182;18.148;2024-02-21T10:33:53;7.78;;;7.03;;
46284;SDS011;32018;59.182;18.148;2024-02-21T10:36:18;4.00;;;3.60;;
46284;SDS011;32018;59.182;18.148;2024-02-21T10:38:44;2.92;;;2.55;;
46284;SDS011;32018;59.182;18.148;2024-02-21T10:41:09;3.05;;;2.58;;
46284;SDS011;32018;59.182;18.148;2024-02-21T10:43:38;5.50;;;2.38;;
46284;SDS011;32018;59.182;18.148;2024-02-21T10:46:05;2.80;;;2.33;;
46284;SDS011;32018;59.182;18.148;2024-02-21T10:48:33;2.13;;;1.92;;
46284;SDS011;32018;59.182;18.148;2024-02-21T10:51:19;6.00;;;2.65;;
46284;SDS011;32018;59.182;18.148;2024-02-21T10:53:45;3.35;;;2.63;;
46284;SDS011;32018;59.182;18.148;2024-02-21T10:56:16;3.15;;;2.83;;
46284;SDS011;32018;59.182;18.148;2024-02-21T10:58:45;2.70;;;2.47;;
46284;SDS011;32018;59.182;18.148;2024-02-21T11:01:11;2.85;;;2.22;;
46284;SDS011;32018;59.182;18.148;2024-02-21T11:03:37;2.60;;;2.40;;
46284;SDS011;32018;59.182;18.148;2024-02-21T11:06:03;2.97;;;2.35;;
46284;SDS011;32018;59.182;18.148;2024-02-21T11:08:30;6.28;;;3.30;;
46284;SDS011;32018;59.182;18.148;2024-02-21T11:10:58;5.78;;;4.93;;
46284;SDS011;32018;59.182;18.148;2024-02-21T11:14:03;2.30;;;2.10;;
46284;SDS011;32018;59.182;18.148;2024-02-21T11:16:22;2.35;;;2.10;;
46284;SDS011;32018;59.182;18.148;2024-02-21T11:18:48;14.10;;;3.75;;
46284;SDS011;32018;59.182;18.148;2024-02-21T11:21:13;7.45;;;6.72;;
46284;SDS011;32018;59.182;18.148;2024-02-21T11:23:38;2.92;;;2.58;;
46284;SDS011;32018;59.182;18.148;2024-02-21T11:26:07;4.38;;;2.70;;
46284;SDS011;32018;59.182;18.148;2024-02-21T11:28:33;4.15;;;3.00;;
46284;SDS011;32018;59.182;18.148;2024-02-21T11:31:08;4.57;;;2.70;;
46284;SDS011;32018;59.182;18.148;2024-02-21T11:33:34;3.15;;;2.95;;
46284;SDS011;32018;59.182;18.148;2024-02-21T11:35:59;2.38;;;2.17;;
46284;SDS011;32018;59.182;18.148;2024-02-21T11:38:24;5.00;;;4.50;;
46284;SDS011;32018;59.182;18.148;2024-02-21T11:40:50;9.57;;;6.05;;
46284;SDS011;32018;59.182;18.148;2024-02-21T11:43:15;2.85;;;2.65;;
46284;SDS011;32018;59.182;18.148;2024-02-21T11:45:41;19.80;;;6.88;;
46284;SDS011;32018;59.182;18.148;2024-02-21T11:48:06;4.47;;;4.07;;
46284;SDS011;32018;59.182;18.148;2024-02-21T11:50:32;6.32;;;5.70;;
46284;SDS011;32018;59.182;18.148;2024-02-21T11:52:57;7.38;;;3.75;;
46284;SDS011;32018;59.182;18.148;2024-02-21T11:55:22;11.52;;;5.00;;
46284;SDS011;32018;59.182;18.148;2024-02-21T11:57:48;3.03;;;2.75;;
46284;SDS011;32018;59.182;18.148;2024-02-21T12:00:17;5.30;;;4.80;;
46284;SDS011;32018;59.182;18.148;2024-02-21T12:02:43;3.25;;;2.95;;
46284;SDS011;32018;59.182;18.148;2024-02-21T12:05:08;4.78;;;3.78;;
46284;SDS011;32018;59.182;18.148;2024-02-21T12:07:35;6.57;;;4.55;;
46284;SDS011;32018;59.182;18.148;2024-02-21T12:10:01;7.20;;;5.30;;
46284;SDS011;32018;59.182;18.148;2024-02-21T12:12:26;4.65;;;3.67;;
46284;SDS011;32018;59.182;18.148;2024-02-21T12:14:55;3.35;;;2.58;;
46284;SDS011;32018;59.182;18.148;2024-02-21T12:17:21;2.35;;;2.15;;
46284;SDS011;32018;59.182;18.148;2024-02-21T12:19:46;4.65;;;4.15;;
46284;SDS011;32018;59.182;18.148;2024-02-21T12:22:16;5.95;;;5.38;;
46284;SDS011;32018;59.182;18.148;2024-02-21T12:24:41;4.50;;;4.10;;
46284;SDS011;32018;59.182;18.148;2024-02-21T12:29:37;4.68;;;3.30;;
46284;SDS011;32018;59.182;18.148;2024-02-21T12:32:02;4.95;;;4.43;;
46284;SDS011;32018;59.182;18.148;2024-02-21T12:34:29;3.17;;;2.97;;
46284;SDS011;32018;59.182;18.148;2024-02-21T12:36:57;2.63;;;2.38;;
46284;SDS011;32018;59.182;18.148;2024-02-21T12:39:22;20.60;;;4.53;;
46284;SDS011;32018;59.182;18.148;2024-02-21T12:41:47;16.42;;;4.60;;
46284;SDS011;32018;59.182;18.148;2024-02-21T12:44:12;16.75;;;4.03;;
46284;SDS011;32018;59.182;18.148;2024-02-21T12:46:38;3.80;;;3.50;;
46284;SDS011;32018;59.182;18.148;2024-02-21T12:49:04;3.00;;;2.80;;
46284;SDS011;32018;59.182;18.148;2024-02-21T12:51:33;3.47;;;2.90;;
46284;SDS011;32018;59.182;18.148;2024-02-21T12:53:59;5.55;;;3.38;;
46284;SDS011;32018;59.182;18.148;2024-02-21T12:56:24;2.80;;;2.58;;
46284;SDS011;32018;59.182;18.148;2024-02-21T12:58:52;4.22;;;3.90;;
46284;SDS011;32018;59.182;18.148;2024-02-21T13:01:17;3.20;;;2.90;;
46284;SDS011;32018;59.182;18.148;2024-02-21T13:03:42;5.72;;;4.07;;
46284;SDS011;32018;59.182;18.148;2024-02-21T13:06:10;5.45;;;3.05;;
46284;SDS011;32018;59.182;18.148;2024-02-21T13:08:38;10.07;;;4.80;;
46284;SDS011;32018;59.182;18.148;2024-02-21T13:11:04;9.02;;;8.23;;
46284;SDS011;32018;59.182;18.148;2024-02-21T13:13:29;8.00;;;6.32;;
46284;SDS011;32018;59.182;18.148;2024-02-21T13:15:55;3.05;;;2.85;;
46284;SDS011;32018;59.182;18.148;2024-02-21T13:18:20;4.07;;;3.65;;
46284;SDS011;32018;59.182;18.148;2024-02-21T13:20:45;9.77;;;6.97;;
46284;SDS011;32018;59.182;18.148;2024-02-21T13:23:10;15.88;;;9.30;;
46284;SDS011;32018;59.182;18.148;2024-02-21T13:25:36;4.13;;;3.83;;
46284;SDS011;32018;59.182;18.148;2024-02-21T13:28:01;6.95;;;6.20;;
46284;SDS011;32018;59.182;18.148;2024-02-21T13:30:28;6.30;;;5.80;;
46284;SDS011;32018;59.182;18.148;2024-02-21T13:32:53;17.27;;;5.97;;
46284;SDS011;32018;59.182;18.148;2024-02-21T13:35:19;17.15;;;5.75;;
46284;SDS011;32018;59.182;18.148;2024-02-21T13:37:45;23.75;;;6.30;;
46284;SDS011;32018;59.182;18.148;2024-02-21T13:40:11;27.20;;;6.22;;
46284;SDS011;32018;59.182;18.148;2024-02-21T13:42:36;24.73;;;5.55;;
46284;SDS011;32018;59.182;18.148;2024-02-21T13:45:02;28.38;;;4.20;;
46284;SDS011;32018;59.182;18.148;2024-02-21T13:47:27;12.15;;;4.63;;
46284;SDS011;32018;59.182;18.148;2024-02-21T13:49:53;21.42;;;6.40;;
46284;SDS011;32018;59.182;18.148;2024-02-21T13:52:18;11.68;;;4.90;;
46284;SDS011;32018;59.182;18.148;2024-02-21T13:54:46;13.55;;;4.72;;
46284;SDS011;32018;59.182;18.148;2024-02-21T13:57:11;39.63;;;4.82;;
46284;SDS011;32018;59.182;18.148;2024-02-21T13:59:36;36.40;;;5.50;;
46284;SDS011;32018;59.182;18.148;2024-02-21T14:02:01;9.32;;;3.65;;
46284;SDS011;32018;59.182;18.148;2024-02-21T14:04:27;14.80;;;5.57;;
46284;SDS011;32018;59.182;18.148;2024-02-21T14:06:52;12.90;;;2.97;;
46284;SDS011;32018;59.182;18.148;2024-02-21T14:09:18;19.35;;;4.68;;
46284;SDS011;32018;59.182;18.148;2024-02-21T14:11:44;3.70;;;3.42;;
46284;SDS011;32018;59.182;18.148;2024-02-21T14:14:10;24.90;;;4.95;;
46284;SDS011;32018;59.182;18.148;2024-02-21T14:16:35;40.72;;;5.05;;
46284;SDS011;32018;59.182;18.148;2024-02-21T14:19:00;25.17;;;4.50;;
46284;SDS011;32018;59.182;18.148;2024-02-21T14:21:26;3.45;;;3.25;;
46284;SDS011;32018;59.182;18.148;2024-02-21T14:23:53;3.20;;;3.00;;
46284;SDS011;32018;59.182;18.148;2024-02-21T14:26:19;8.68;;;5.63;;
46284;SDS011;32018;59.182;18.148;2024-02-21T14:28:44;3.35;;;3.15;;